EST,Max TemperatureF,Mean TemperatureF,Min TemperatureF,Max Dew PointF,MeanDew PointF,Min DewpointF,Max Humidity, Mean Humidity, Min Humidity, Max Sea Level PressureIn, Mean Sea Level PressureIn, Min Sea Level PressureIn, Max VisibilityMiles, Mean VisibilityMiles, Min VisibilityMiles, Max Wind SpeedMPH, Mean Wind SpeedMPH, Max Gust SpeedMPH,PrecipitationIn, CloudCover, Events, WindDirDegrees
2013-2-1,64,48,32,36,31,26,89,60,30,30.34,30.29,30.26,10,10,9,20,7,24,0.00,3,,292
2013-2-2,65,48,31,36,27,19,79,52,24,30.37,30.27,30.17,10,10,10,9,2,13,0.00,1,,303
2013-2-3,66,50,34,40,31,26,86,54,22,30.19,30.12,30.05,10,10,10,18,8,25,0.00,1,,271
2013-2-4,64,49,34,45,37,30,92,61,30,30.14,30.10,30.07,10,10,10,9,3,16,0.00,5,,249
2013-2-5,71,56,40,53,45,38,96,68,40,30.11,30.06,30.01,10,10,10,12,2,17,T,6,,223
2013-2-6,69,62,54,58,54,50,93,77,61,30.17,30.12,30.06,10,9,2,9,3,21,0.02,7,Rain,126
2013-2-7,78,66,54,64,60,53,100,76,52,30.10,29.96,29.83,10,10,6,20,8,25,T,7,,175
2013-2-8,68,58,48,63,53,48,96,77,58,30.10,29.98,29.83,10,10,4,20,8,28,0.00,5,,291
2013-2-9,65,55,44,49,43,36,100,68,36,30.29,30.21,30.10,10,10,10,18,7,22,0.00,1,,28
2013-2-10,73,59,44,57,51,42,93,69,44,30.32,30.24,30.18,10,10,10,23,10,99,0.00,4,,115
2013-2-11,83,72,61,61,59,57,87,68,48,30.20,30.13,30.07,10,10,10,18,8,23,0.00,6,,204
2013-2-12,81,69,57,66,62,57,100,79,58,30.09,30.00,29.87,10,6,0,20,6,26,T,7,Fog,165
2013-2-13,80,69,58,70,62,45,87,64,41,29.93,29.85,29.80,10,10,7,21,11,26,0.05,7,Rain-Thunderstorm,239
2013-2-14,58,52,45,54,47,42,93,82,71,30.09,30.03,29.93,10,10,4,12,5,14,0.17,8,Rain,308
2013-2-15,66,51,36,46,41,35,100,70,40,30.12,30.05,30.00,10,9,6,13,3,,0.00,2,,41
2013-2-16,60,49,38,43,38,19,100,71,41,30.16,29.99,29.93,10,10,6,25,7,36,0.02,6,Rain,281
2013-2-17,52,39,26,22,16,6,75,46,16,30.37,30.28,30.17,10,10,10,20,7,24,0.00,0,,297
2013-2-18,60,42,24,38,29,18,88,57,26,30.44,30.36,30.26,10,10,10,16,4,18,0.00,2,,83
2013-2-19,79,58,37,60,49,36,100,68,35,30.25,30.12,30.02,10,10,8,24,9,32,T,5,Rain,239
2013-2-20,68,54,40,52,38,27,100,61,22,30.20,30.14,30.08,10,9,0,12,5,,0.00,5,Fog,331
2013-2-21,70,54,37,56,43,32,92,61,30,30.18,30.11,30.07,10,10,10,13,4,17,0.00,5,,75
2013-2-22,80,70,59,66,62,56,100,77,54,30.09,30.05,30.01,10,9,4,16,5,22,0.01,7,,127
2013-2-23,83,73,62,66,63,60,100,76,51,30.00,29.94,29.85,10,8,1,24,10,32,0.51,7,Rain-Thunderstorm,231
2013-2-24,75,67,59,61,56,39,100,66,31,30.01,29.94,29.86,10,8,2,16,5,30,0.14,8,Rain,41
2013-2-25,66,62,57,65,59,55,100,90,80,29.98,29.91,29.81,10,6,0,23,11,30,3.20,8,Fog-Rain-Thunderstorm,56
2013-2-26,79,69,58,67,61,46,100,68,35,29.84,29.73,29.68,10,8,1,25,14,32,0.59,6,Rain,196
2013-2-27,68,60,52,50,44,39,83,60,37,29.99,29.92,29.85,10,10,10,21,9,24,0.00,5,,280
2013-2-28,68,58,48,50,40,32,93,63,32,29.99,29.93,29.86,10,10,10,25,10,32,0.00,3,,275